GOSS

Saint Louis Airport

Saint Louis, Senegal
METAR GOSS 110300Z 36006KT CAVOK 19/09 Q1014
Observed Flight Rules
Dec-11 @ 03:00 UTC (2 hours ago) Visual Flight Rules
Wind Visibility Clouds
360° at 6 knots 10,000+ meters
  • Clear skies
Temperatures Readings
Current 19°C / 66°F
Dewpoint 9°C / 48°F
Humidity 52%
Altimeter 29.94" Hg
Pressure 1014 hPa
Elevation 4
METAR GOSS 110300Z 36006KT CAVOK 19/09 Q1014
Observed Flight Rules
Dec-11 @ 03:00 UTC
(2 hours ago)
VFR
Wind Visibility
360° at 6 knots 10,000+ meters
Clouds
  • Clear skies
Temperature Dewpoint
19°C / 66°F 9°C / 48°F
Humidity Altimeter Pressure
52% 29.94" Hg 1014 hPa